sensor_id;sensor_type;location;lat;lon;timestamp;P1;durP1;ratioP1;P2;durP2;ratioP2
64907;SDS011;69061;52.236;5.188;2023-07-02T00:01:45;15.43;;;7.72;;
64907;SDS011;69061;52.236;5.188;2023-07-02T00:04:12;13.88;;;7.13;;
64907;SDS011;69061;52.236;5.188;2023-07-02T00:06:41;14.77;;;7.85;;
64907;SDS011;69061;52.236;5.188;2023-07-02T00:09:08;19.13;;;8.77;;
64907;SDS011;69061;52.236;5.188;2023-07-02T00:11:38;16.50;;;8.48;;
64907;SDS011;69061;52.236;5.188;2023-07-02T00:14:07;22.23;;;9.73;;
64907;SDS011;69061;52.236;5.188;2023-07-02T00:16:34;21.23;;;9.27;;
64907;SDS011;69061;52.236;5.188;2023-07-02T00:19:01;18.88;;;8.63;;
64907;SDS011;69061;52.236;5.188;2023-07-02T00:21:28;20.23;;;8.20;;
64907;SDS011;69061;52.236;5.188;2023-07-02T00:23:58;21.02;;;8.65;;
64907;SDS011;69061;52.236;5.188;2023-07-02T00:26:25;22.88;;;9.25;;
64907;SDS011;69061;52.236;5.188;2023-07-02T00:28:54;18.45;;;9.35;;
64907;SDS011;69061;52.236;5.188;2023-07-02T00:31:22;24.88;;;8.95;;
64907;SDS011;69061;52.236;5.188;2023-07-02T00:33:49;19.58;;;8.60;;
64907;SDS011;69061;52.236;5.188;2023-07-02T00:36:17;22.95;;;9.75;;
64907;SDS011;69061;52.236;5.188;2023-07-02T00:38:44;28.08;;;9.75;;
64907;SDS011;69061;52.236;5.188;2023-07-02T00:41:12;25.02;;;9.07;;
64907;SDS011;69061;52.236;5.188;2023-07-02T00:43:39;23.98;;;9.50;;
64907;SDS011;69061;52.236;5.188;2023-07-02T00:46:10;26.83;;;9.73;;
64907;SDS011;69061;52.236;5.188;2023-07-02T00:48:43;24.48;;;10.20;;
64907;SDS011;69061;52.236;5.188;2023-07-02T00:51:10;23.23;;;10.02;;
64907;SDS011;69061;52.236;5.188;2023-07-02T00:53:38;21.90;;;10.00;;
64907;SDS011;69061;52.236;5.188;2023-07-02T00:56:05;25.95;;;12.50;;
64907;SDS011;69061;52.236;5.188;2023-07-02T00:58:32;27.70;;;10.80;;
64907;SDS011;69061;52.236;5.188;2023-07-02T01:01:00;23.48;;;10.30;;
64907;SDS011;69061;52.236;5.188;2023-07-02T01:03:28;18.77;;;10.00;;
64907;SDS011;69061;52.236;5.188;2023-07-02T01:05:58;31.10;;;9.95;;
64907;SDS011;69061;52.236;5.188;2023-07-02T01:08:26;22.35;;;9.95;;
64907;SDS011;69061;52.236;5.188;2023-07-02T01:10:53;23.20;;;9.07;;
64907;SDS011;69061;52.236;5.188;2023-07-02T01:13:21;25.95;;;11.75;;
64907;SDS011;69061;52.236;5.188;2023-07-02T01:15:50;19.40;;;9.25;;
64907;SDS011;69061;52.236;5.188;2023-07-02T01:18:17;24.50;;;10.20;;
64907;SDS011;69061;52.236;5.188;2023-07-02T01:20:45;26.85;;;10.50;;
64907;SDS011;69061;52.236;5.188;2023-07-02T01:23:13;27.38;;;12.32;;
64907;SDS011;69061;52.236;5.188;2023-07-02T01:25:40;27.35;;;9.77;;
64907;SDS011;69061;52.236;5.188;2023-07-02T01:28:10;25.13;;;10.77;;
64907;SDS011;69061;52.236;5.188;2023-07-02T01:30:39;29.45;;;11.00;;
64907;SDS011;69061;52.236;5.188;2023-07-02T01:33:05;22.40;;;9.40;;
64907;SDS011;69061;52.236;5.188;2023-07-02T01:35:32;27.10;;;10.90;;
64907;SDS011;69061;52.236;5.188;2023-07-02T01:38:00;27.77;;;10.57;;
64907;SDS011;69061;52.236;5.188;2023-07-02T01:40:28;25.52;;;10.57;;
64907;SDS011;69061;52.236;5.188;2023-07-02T01:42:54;32.35;;;11.73;;
64907;SDS011;69061;52.236;5.188;2023-07-02T01:45:21;27.23;;;10.82;;
64907;SDS011;69061;52.236;5.188;2023-07-02T01:47:49;29.00;;;12.45;;
64907;SDS011;69061;52.236;5.188;2023-07-02T01:50:16;26.67;;;10.55;;
64907;SDS011;69061;52.236;5.188;2023-07-02T01:52:42;27.95;;;11.38;;
64907;SDS011;69061;52.236;5.188;2023-07-02T01:55:10;20.15;;;9.98;;
64907;SDS011;69061;52.236;5.188;2023-07-02T01:57:37;30.27;;;11.52;;
64907;SDS011;69061;52.236;5.188;2023-07-02T02:00:05;28.73;;;10.93;;
64907;SDS011;69061;52.236;5.188;2023-07-02T02:02:34;36.38;;;12.48;;
64907;SDS011;69061;52.236;5.188;2023-07-02T02:05:01;23.58;;;10.77;;
64907;SDS011;69061;52.236;5.188;2023-07-02T02:07:28;27.35;;;10.95;;
64907;SDS011;69061;52.236;5.188;2023-07-02T02:09:55;25.17;;;11.90;;
64907;SDS011;69061;52.236;5.188;2023-07-02T02:12:23;29.05;;;10.98;;
64907;SDS011;69061;52.236;5.188;2023-07-02T02:14:50;25.40;;;10.73;;
64907;SDS011;69061;52.236;5.188;2023-07-02T02:17:17;33.67;;;11.07;;
64907;SDS011;69061;52.236;5.188;2023-07-02T02:19:44;21.10;;;10.32;;
64907;SDS011;69061;52.236;5.188;2023-07-02T02:22:11;22.98;;;9.90;;
64907;SDS011;69061;52.236;5.188;2023-07-02T02:24:38;22.63;;;10.75;;
64907;SDS011;69061;52.236;5.188;2023-07-02T02:27:05;26.65;;;11.02;;
64907;SDS011;69061;52.236;5.188;2023-07-02T02:29:33;21.90;;;9.70;;
64907;SDS011;69061;52.236;5.188;2023-07-02T02:32:00;23.05;;;11.25;;
64907;SDS011;69061;52.236;5.188;2023-07-02T02:34:26;23.70;;;10.23;;
64907;SDS011;69061;52.236;5.188;2023-07-02T02:36:54;28.30;;;11.13;;
64907;SDS011;69061;52.236;5.188;2023-07-02T02:39:22;23.98;;;10.63;;
64907;SDS011;69061;52.236;5.188;2023-07-02T02:41:49;29.10;;;11.15;;
64907;SDS011;69061;52.236;5.188;2023-07-02T02:44:15;26.58;;;10.80;;
64907;SDS011;69061;52.236;5.188;2023-07-02T02:46:43;23.95;;;10.57;;
64907;SDS011;69061;52.236;5.188;2023-07-02T02:49:10;30.05;;;11.20;;
64907;SDS011;69061;52.236;5.188;2023-07-02T02:51:37;26.95;;;11.55;;
64907;SDS011;69061;52.236;5.188;2023-07-02T02:54:05;24.25;;;11.38;;
64907;SDS011;69061;52.236;5.188;2023-07-02T02:56:32;20.00;;;9.52;;
64907;SDS011;69061;52.236;5.188;2023-07-02T02:58:59;25.55;;;9.52;;
64907;SDS011;69061;52.236;5.188;2023-07-02T03:01:26;32.50;;;11.07;;
64907;SDS011;69061;52.236;5.188;2023-07-02T03:03:57;23.13;;;10.48;;
64907;SDS011;69061;52.236;5.188;2023-07-02T03:06:24;27.00;;;10.07;;
64907;SDS011;69061;52.236;5.188;2023-07-02T03:08:51;26.23;;;11.20;;
64907;SDS011;69061;52.236;5.188;2023-07-02T03:11:18;31.80;;;11.50;;
64907;SDS011;69061;52.236;5.188;2023-07-02T03:13:45;25.50;;;10.30;;
64907;SDS011;69061;52.236;5.188;2023-07-02T03:16:12;27.60;;;11.00;;
64907;SDS011;69061;52.236;5.188;2023-07-02T03:18:39;31.25;;;11.73;;
64907;SDS011;69061;52.236;5.188;2023-07-02T03:21:07;30.27;;;10.80;;
64907;SDS011;69061;52.236;5.188;2023-07-02T03:23:35;23.85;;;10.65;;
64907;SDS011;69061;52.236;5.188;2023-07-02T03:26:02;29.40;;;12.48;;
64907;SDS011;69061;52.236;5.188;2023-07-02T03:28:29;30.15;;;11.30;;
64907;SDS011;69061;52.236;5.188;2023-07-02T03:30:56;28.88;;;10.38;;
64907;SDS011;69061;52.236;5.188;2023-07-02T03:33:22;28.73;;;11.40;;
64907;SDS011;69061;52.236;5.188;2023-07-02T03:35:49;31.00;;;12.35;;
64907;SDS011;69061;52.236;5.188;2023-07-02T03:38:20;27.92;;;11.35;;
64907;SDS011;69061;52.236;5.188;2023-07-02T03:40:46;27.02;;;11.63;;
64907;SDS011;69061;52.236;5.188;2023-07-02T03:43:13;25.38;;;11.68;;
64907;SDS011;69061;52.236;5.188;2023-07-02T03:45:40;28.73;;;11.35;;
64907;SDS011;69061;52.236;5.188;2023-07-02T03:48:07;23.55;;;10.80;;
64907;SDS011;69061;52.236;5.188;2023-07-02T03:50:33;27.42;;;12.45;;
64907;SDS011;69061;52.236;5.188;2023-07-02T03:53:00;32.95;;;12.32;;
64907;SDS011;69061;52.236;5.188;2023-07-02T03:55:29;34.17;;;11.75;;
64907;SDS011;69061;52.236;5.188;2023-07-02T03:57:55;27.77;;;11.20;;
64907;SDS011;69061;52.236;5.188;2023-07-02T04:00:22;29.55;;;12.60;;
64907;SDS011;69061;52.236;5.188;2023-07-02T04:02:49;32.92;;;11.23;;
64907;SDS011;69061;52.236;5.188;2023-07-02T04:05:16;23.38;;;11.63;;
64907;SDS011;69061;52.236;5.188;2023-07-02T04:07:42;31.08;;;11.25;;
64907;SDS011;69061;52.236;5.188;2023-07-02T04:10:09;35.67;;;10.90;;
64907;SDS011;69061;52.236;5.188;2023-07-02T04:12:39;29.80;;;12.30;;
64907;SDS011;69061;52.236;5.188;2023-07-02T04:15:07;27.33;;;11.23;;
64907;SDS011;69061;52.236;5.188;2023-07-02T04:17:34;30.98;;;12.60;;
64907;SDS011;69061;52.236;5.188;2023-07-02T04:20:01;30.40;;;11.10;;
64907;SDS011;69061;52.236;5.188;2023-07-02T04:22:29;29.55;;;10.65;;
64907;SDS011;69061;52.236;5.188;2023-07-02T04:24:56;27.58;;;10.93;;
64907;SDS011;69061;52.236;5.188;2023-07-02T04:27:24;32.38;;;10.30;;
64907;SDS011;69061;52.236;5.188;2023-07-02T04:29:53;33.15;;;11.07;;
64907;SDS011;69061;52.236;5.188;2023-07-02T04:32:21;29.45;;;11.60;;
64907;SDS011;69061;52.236;5.188;2023-07-02T04:34:47;36.50;;;11.23;;
64907;SDS011;69061;52.236;5.188;2023-07-02T04:37:14;28.88;;;11.10;;
64907;SDS011;69061;52.236;5.188;2023-07-02T04:39:41;29.00;;;11.45;;
64907;SDS011;69061;52.236;5.188;2023-07-02T04:42:08;31.63;;;12.40;;
64907;SDS011;69061;52.236;5.188;2023-07-02T04:44:39;25.63;;;10.93;;
64907;SDS011;69061;52.236;5.188;2023-07-02T04:47:09;28.35;;;11.55;;
64907;SDS011;69061;52.236;5.188;2023-07-02T04:49:36;28.55;;;10.55;;
64907;SDS011;69061;52.236;5.188;2023-07-02T04:52:04;29.15;;;10.48;;
64907;SDS011;69061;52.236;5.188;2023-07-02T04:54:31;29.50;;;10.55;;
64907;SDS011;69061;52.236;5.188;2023-07-02T04:56:58;27.70;;;10.20;;
64907;SDS011;69061;52.236;5.188;2023-07-02T04:59:25;31.80;;;11.38;;
64907;SDS011;69061;52.236;5.188;2023-07-02T05:01:52;29.92;;;11.00;;
64907;SDS011;69061;52.236;5.188;2023-07-02T05:04:20;31.70;;;10.73;;
64907;SDS011;69061;52.236;5.188;2023-07-02T05:06:47;33.92;;;10.75;;
64907;SDS011;69061;52.236;5.188;2023-07-02T05:09:13;24.00;;;9.75;;
64907;SDS011;69061;52.236;5.188;2023-07-02T05:11:40;29.83;;;10.43;;
64907;SDS011;69061;52.236;5.188;2023-07-02T05:14:07;37.83;;;10.75;;
64907;SDS011;69061;52.236;5.188;2023-07-02T05:16:33;35.03;;;10.52;;
64907;SDS011;69061;52.236;5.188;2023-07-02T05:19:00;33.55;;;10.57;;
64907;SDS011;69061;52.236;5.188;2023-07-02T05:21:28;26.15;;;10.45;;
64907;SDS011;69061;52.236;5.188;2023-07-02T05:23:56;26.88;;;9.77;;
64907;SDS011;69061;52.236;5.188;2023-07-02T05:26:22;27.63;;;10.48;;
64907;SDS011;69061;52.236;5.188;2023-07-02T05:28:49;26.65;;;9.18;;
64907;SDS011;69061;52.236;5.188;2023-07-02T05:31:16;25.73;;;10.20;;
64907;SDS011;69061;52.236;5.188;2023-07-02T05:33:42;20.05;;;8.85;;
64907;SDS011;69061;52.236;5.188;2023-07-02T05:36:09;29.98;;;10.57;;
64907;SDS011;69061;52.236;5.188;2023-07-02T05:38:37;22.83;;;9.75;;
64907;SDS011;69061;52.236;5.188;2023-07-02T05:41:04;21.83;;;9.93;;
64907;SDS011;69061;52.236;5.188;2023-07-02T05:43:31;27.73;;;10.35;;
64907;SDS011;69061;52.236;5.188;2023-07-02T05:45:57;23.02;;;9.55;;
64907;SDS011;69061;52.236;5.188;2023-07-02T05:48:26;27.38;;;9.35;;
64907;SDS011;69061;52.236;5.188;2023-07-02T05:50:53;20.98;;;8.80;;
64907;SDS011;69061;52.236;5.188;2023-07-02T05:53:21;21.73;;;8.90;;
64907;SDS011;69061;52.236;5.188;2023-07-02T05:55:49;23.10;;;8.85;;
64907;SDS011;69061;52.236;5.188;2023-07-02T05:58:16;25.42;;;9.75;;
64907;SDS011;69061;52.236;5.188;2023-07-02T06:00:43;21.73;;;9.05;;
64907;SDS011;69061;52.236;5.188;2023-07-02T06:03:14;20.77;;;9.73;;
64907;SDS011;69061;52.236;5.188;2023-07-02T06:05:45;22.60;;;8.60;;
64907;SDS011;69061;52.236;5.188;2023-07-02T06:08:14;24.27;;;8.43;;
64907;SDS011;69061;52.236;5.188;2023-07-02T06:10:41;21.48;;;9.75;;
64907;SDS011;69061;52.236;5.188;2023-07-02T06:13:09;32.63;;;10.45;;
64907;SDS011;69061;52.236;5.188;2023-07-02T06:15:36;26.65;;;9.05;;
64907;SDS011;69061;52.236;5.188;2023-07-02T06:18:05;24.30;;;8.60;;
64907;SDS011;69061;52.236;5.188;2023-07-02T06:20:31;21.42;;;8.68;;
64907;SDS011;69061;52.236;5.188;2023-07-02T06:22:58;21.83;;;8.88;;
64907;SDS011;69061;52.236;5.188;2023-07-02T06:25:25;16.30;;;8.18;;
64907;SDS011;69061;52.236;5.188;2023-07-02T06:27:52;23.38;;;9.60;;
64907;SDS011;69061;52.236;5.188;2023-07-02T06:30:24;21.00;;;9.52;;
64907;SDS011;69061;52.236;5.188;2023-07-02T06:32:51;23.10;;;8.68;;
64907;SDS011;69061;52.236;5.188;2023-07-02T06:35:21;23.20;;;9.25;;
64907;SDS011;69061;52.236;5.188;2023-07-02T06:37:48;25.85;;;9.63;;
64907;SDS011;69061;52.236;5.188;2023-07-02T06:40:15;23.20;;;8.35;;
64907;SDS011;69061;52.236;5.188;2023-07-02T06:42:42;27.70;;;9.60;;
64907;SDS011;69061;52.236;5.188;2023-07-02T06:45:09;28.30;;;9.88;;
64907;SDS011;69061;52.236;5.188;2023-07-02T06:47:37;23.77;;;9.20;;
64907;SDS011;69061;52.236;5.188;2023-07-02T06:50:05;19.23;;;8.60;;
64907;SDS011;69061;52.236;5.188;2023-07-02T06:52:32;20.75;;;8.07;;
64907;SDS011;69061;52.236;5.188;2023-07-02T06:54:59;20.95;;;7.97;;
64907;SDS011;69061;52.236;5.188;2023-07-02T06:57:25;23.60;;;9.05;;
64907;SDS011;69061;52.236;5.188;2023-07-02T06:59:52;20.73;;;8.18;;
64907;SDS011;69061;52.236;5.188;2023-07-02T07:02:24;21.27;;;7.72;;
64907;SDS011;69061;52.236;5.188;2023-07-02T07:04:52;25.52;;;8.82;;
64907;SDS011;69061;52.236;5.188;2023-07-02T07:07:19;23.98;;;9.75;;
64907;SDS011;69061;52.236;5.188;2023-07-02T07:09:46;16.73;;;7.93;;
64907;SDS011;69061;52.236;5.188;2023-07-02T07:12:13;15.45;;;7.60;;
64907;SDS011;69061;52.236;5.188;2023-07-02T07:14:39;30.13;;;8.60;;
64907;SDS011;69061;52.236;5.188;2023-07-02T07:17:06;20.10;;;8.02;;
64907;SDS011;69061;52.236;5.188;2023-07-02T07:19:33;19.15;;;8.05;;
64907;SDS011;69061;52.236;5.188;2023-07-02T07:22:02;22.85;;;8.38;;
64907;SDS011;69061;52.236;5.188;2023-07-02T07:24:29;22.42;;;8.98;;
64907;SDS011;69061;52.236;5.188;2023-07-02T07:26:56;18.70;;;8.05;;
64907;SDS011;69061;52.236;5.188;2023-07-02T07:29:22;19.50;;;8.25;;
64907;SDS011;69061;52.236;5.188;2023-07-02T07:31:49;18.85;;;8.30;;
64907;SDS011;69061;52.236;5.188;2023-07-02T07:34:16;21.40;;;8.68;;
64907;SDS011;69061;52.236;5.188;2023-07-02T07:36:43;22.02;;;7.90;;
64907;SDS011;69061;52.236;5.188;2023-07-02T07:39:11;18.20;;;8.32;;
64907;SDS011;69061;52.236;5.188;2023-07-02T07:41:38;24.45;;;8.75;;
64907;SDS011;69061;52.236;5.188;2023-07-02T07:44:05;16.77;;;8.07;;
64907;SDS011;69061;52.236;5.188;2023-07-02T07:46:32;20.00;;;8.00;;
64907;SDS011;69061;52.236;5.188;2023-07-02T07:48:58;20.50;;;8.98;;
64907;SDS011;69061;52.236;5.188;2023-07-02T07:51:25;16.65;;;8.27;;
64907;SDS011;69061;52.236;5.188;2023-07-02T07:53:52;14.77;;;7.63;;
64907;SDS011;69061;52.236;5.188;2023-07-02T07:56:21;19.00;;;7.18;;
64907;SDS011;69061;52.236;5.188;2023-07-02T07:58:48;25.23;;;8.55;;
64907;SDS011;69061;52.236;5.188;2023-07-02T08:01:14;19.48;;;8.02;;
64907;SDS011;69061;52.236;5.188;2023-07-02T08:03:41;24.77;;;9.63;;
64907;SDS011;69061;52.236;5.188;2023-07-02T08:06:08;21.65;;;9.13;;
64907;SDS011;69061;52.236;5.188;2023-07-02T08:08:35;19.33;;;7.93;;
64907;SDS011;69061;52.236;5.188;2023-07-02T08:11:01;19.48;;;8.82;;
64907;SDS011;69061;52.236;5.188;2023-07-02T08:13:30;22.35;;;8.10;;
64907;SDS011;69061;52.236;5.188;2023-07-02T08:15:57;17.50;;;8.18;;
64907;SDS011;69061;52.236;5.188;2023-07-02T08:18:26;19.90;;;9.40;;
64907;SDS011;69061;52.236;5.188;2023-07-02T08:20:53;17.95;;;8.65;;
64907;SDS011;69061;52.236;5.188;2023-07-02T08:23:19;22.52;;;9.40;;
64907;SDS011;69061;52.236;5.188;2023-07-02T08:25:46;29.13;;;9.48;;
64907;SDS011;69061;52.236;5.188;2023-07-02T08:28:13;17.52;;;7.95;;
64907;SDS011;69061;52.236;5.188;2023-07-02T08:30:41;17.05;;;8.32;;
64907;SDS011;69061;52.236;5.188;2023-07-02T08:33:08;19.80;;;8.48;;
64907;SDS011;69061;52.236;5.188;2023-07-02T08:35:35;21.50;;;8.95;;
64907;SDS011;69061;52.236;5.188;2023-07-02T08:38:02;22.25;;;8.82;;
64907;SDS011;69061;52.236;5.188;2023-07-02T08:40:29;21.40;;;8.73;;
64907;SDS011;69061;52.236;5.188;2023-07-02T08:42:56;20.20;;;8.43;;
64907;SDS011;69061;52.236;5.188;2023-07-02T08:45:23;17.73;;;7.70;;
64907;SDS011;69061;52.236;5.188;2023-07-02T08:47:52;18.45;;;8.40;;
64907;SDS011;69061;52.236;5.188;2023-07-02T08:50:21;21.23;;;8.10;;
64907;SDS011;69061;52.236;5.188;2023-07-02T08:52:48;20.77;;;8.98;;
64907;SDS011;69061;52.236;5.188;2023-07-02T08:55:15;16.98;;;8.07;;
64907;SDS011;69061;52.236;5.188;2023-07-02T08:57:42;21.05;;;7.70;;
64907;SDS011;69061;52.236;5.188;2023-07-02T09:00:16;20.40;;;7.47;;
64907;SDS011;69061;52.236;5.188;2023-07-02T09:02:44;18.27;;;7.90;;
64907;SDS011;69061;52.236;5.188;2023-07-02T09:05:13;20.95;;;7.35;;
64907;SDS011;69061;52.236;5.188;2023-07-02T09:07:43;17.75;;;6.85;;
64907;SDS011;69061;52.236;5.188;2023-07-02T09:10:12;15.70;;;7.40;;
64907;SDS011;69061;52.236;5.188;2023-07-02T09:12:39;17.10;;;7.50;;
64907;SDS011;69061;52.236;5.188;2023-07-02T09:15:06;16.60;;;7.25;;
64907;SDS011;69061;52.236;5.188;2023-07-02T09:17:34;18.08;;;7.07;;
64907;SDS011;69061;52.236;5.188;2023-07-02T09:20:02;17.02;;;7.60;;
64907;SDS011;69061;52.236;5.188;2023-07-02T09:22:33;17.90;;;6.90;;
64907;SDS011;69061;52.236;5.188;2023-07-02T09:25:00;13.38;;;6.40;;
64907;SDS011;69061;52.236;5.188;2023-07-02T09:27:34;15.15;;;6.72;;
64907;SDS011;69061;52.236;5.188;2023-07-02T09:30:08;14.65;;;6.55;;
64907;SDS011;69061;52.236;5.188;2023-07-02T09:32:37;16.48;;;6.95;;
64907;SDS011;69061;52.236;5.188;2023-07-02T09:35:04;20.60;;;7.05;;
64907;SDS011;69061;52.236;5.188;2023-07-02T09:37:33;14.48;;;6.32;;
64907;SDS011;69061;52.236;5.188;2023-07-02T09:40:00;11.90;;;5.75;;
64907;SDS011;69061;52.236;5.188;2023-07-02T09:42:30;16.17;;;5.88;;
64907;SDS011;69061;52.236;5.188;2023-07-02T09:44:58;12.07;;;6.78;;
64907;SDS011;69061;52.236;5.188;2023-07-02T09:47:27;14.57;;;7.32;;
64907;SDS011;69061;52.236;5.188;2023-07-02T09:49:57;12.38;;;5.72;;
64907;SDS011;69061;52.236;5.188;2023-07-02T09:52:28;17.40;;;6.57;;
64907;SDS011;69061;52.236;5.188;2023-07-02T09:54:57;12.75;;;5.68;;
64907;SDS011;69061;52.236;5.188;2023-07-02T09:57:24;19.80;;;6.05;;
64907;SDS011;69061;52.236;5.188;2023-07-02T09:59:51;15.05;;;5.70;;
64907;SDS011;69061;52.236;5.188;2023-07-02T10:02:18;13.32;;;6.40;;
64907;SDS011;69061;52.236;5.188;2023-07-02T10:04:46;11.55;;;5.28;;
64907;SDS011;69061;52.236;5.188;2023-07-02T10:07:25;16.13;;;6.38;;
64907;SDS011;69061;52.236;5.188;2023-07-02T10:09:53;14.23;;;5.75;;
64907;SDS011;69061;52.236;5.188;2023-07-02T10:12:22;17.27;;;5.43;;
64907;SDS011;69061;52.236;5.188;2023-07-02T10:14:50;10.63;;;5.10;;
64907;SDS011;69061;52.236;5.188;2023-07-02T10:17:25;12.05;;;6.32;;
64907;SDS011;69061;52.236;5.188;2023-07-02T10:19:54;14.52;;;6.32;;
64907;SDS011;69061;52.236;5.188;2023-07-02T10:22:21;17.48;;;6.93;;
64907;SDS011;69061;52.236;5.188;2023-07-02T10:24:52;18.08;;;6.72;;
64907;SDS011;69061;52.236;5.188;2023-07-02T10:27:32;20.20;;;7.60;;
64907;SDS011;69061;52.236;5.188;2023-07-02T10:29:59;16.10;;;6.38;;
64907;SDS011;69061;52.236;5.188;2023-07-02T10:32:28;17.70;;;7.00;;
64907;SDS011;69061;52.236;5.188;2023-07-02T10:34:56;14.43;;;6.75;;
64907;SDS011;69061;52.236;5.188;2023-07-02T10:37:23;14.73;;;5.97;;
64907;SDS011;69061;52.236;5.188;2023-07-02T10:39:50;12.88;;;4.93;;
64907;SDS011;69061;52.236;5.188;2023-07-02T10:42:18;13.15;;;5.28;;
64907;SDS011;69061;52.236;5.188;2023-07-02T10:44:49;12.27;;;5.82;;
64907;SDS011;69061;52.236;5.188;2023-07-02T10:47:17;12.52;;;6.00;;
64907;SDS011;69061;52.236;5.188;2023-07-02T10:49:44;11.90;;;5.78;;
64907;SDS011;69061;52.236;5.188;2023-07-02T10:52:11;12.88;;;6.03;;
64907;SDS011;69061;52.236;5.188;2023-07-02T10:54:39;14.18;;;6.50;;
64907;SDS011;69061;52.236;5.188;2023-07-02T10:57:09;18.77;;;6.25;;
64907;SDS011;69061;52.236;5.188;2023-07-02T10:59:36;18.30;;;5.93;;
64907;SDS011;69061;52.236;5.188;2023-07-02T11:02:05;11.65;;;6.35;;
64907;SDS011;69061;52.236;5.188;2023-07-02T11:04:35;11.73;;;5.70;;
64907;SDS011;69061;52.236;5.188;2023-07-02T11:07:03;13.45;;;5.97;;
64907;SDS011;69061;52.236;5.188;2023-07-02T11:09:30;15.30;;;6.03;;
64907;SDS011;69061;52.236;5.188;2023-07-02T11:11:58;13.00;;;5.88;;
64907;SDS011;69061;52.236;5.188;2023-07-02T11:14:26;12.38;;;6.53;;
64907;SDS011;69061;52.236;5.188;2023-07-02T11:16:54;16.20;;;6.53;;
64907;SDS011;69061;52.236;5.188;2023-07-02T11:19:22;13.48;;;6.00;;
64907;SDS011;69061;52.236;5.188;2023-07-02T11:21:52;17.77;;;7.30;;
64907;SDS011;69061;52.236;5.188;2023-07-02T11:24:27;11.57;;;6.45;;
64907;SDS011;69061;52.236;5.188;2023-07-02T11:26:55;17.80;;;7.70;;
64907;SDS011;69061;52.236;5.188;2023-07-02T11:29:22;19.65;;;7.13;;
64907;SDS011;69061;52.236;5.188;2023-07-02T11:31:49;14.27;;;6.78;;
64907;SDS011;69061;52.236;5.188;2023-07-02T11:34:17;13.35;;;7.07;;
64907;SDS011;69061;52.236;5.188;2023-07-02T11:36:46;12.80;;;6.60;;
64907;SDS011;69061;52.236;5.188;2023-07-02T11:39:13;13.43;;;6.05;;
64907;SDS011;69061;52.236;5.188;2023-07-02T11:41:40;17.80;;;6.35;;
64907;SDS011;69061;52.236;5.188;2023-07-02T11:44:13;15.32;;;6.97;;
64907;SDS011;69061;52.236;5.188;2023-07-02T11:46:41;12.93;;;6.30;;
64907;SDS011;69061;52.236;5.188;2023-07-02T11:49:08;19.40;;;7.05;;
64907;SDS011;69061;52.236;5.188;2023-07-02T11:51:35;11.10;;;5.82;;
64907;SDS011;69061;52.236;5.188;2023-07-02T11:54:04;13.50;;;6.82;;
64907;SDS011;69061;52.236;5.188;2023-07-02T11:56:32;16.13;;;6.68;;
64907;SDS011;69061;52.236;5.188;2023-07-02T11:58:59;12.60;;;7.15;;
64907;SDS011;69061;52.236;5.188;2023-07-02T12:01:26;15.13;;;5.85;;
64907;SDS011;69061;52.236;5.188;2023-07-02T12:03:53;13.15;;;6.65;;
64907;SDS011;69061;52.236;5.188;2023-07-02T12:06:20;13.35;;;6.05;;
64907;SDS011;69061;52.236;5.188;2023-07-02T12:08:47;15.57;;;6.82;;
64907;SDS011;69061;52.236;5.188;2023-07-02T12:11:15;10.48;;;6.10;;
64907;SDS011;69061;52.236;5.188;2023-07-02T12:13:42;12.10;;;6.45;;
64907;SDS011;69061;52.236;5.188;2023-07-02T12:16:08;11.45;;;6.03;;
64907;SDS011;69061;52.236;5.188;2023-07-02T12:18:36;11.65;;;5.88;;
64907;SDS011;69061;52.236;5.188;2023-07-02T12:21:03;10.90;;;6.47;;
64907;SDS011;69061;52.236;5.188;2023-07-02T12:23:29;15.20;;;6.57;;
64907;SDS011;69061;52.236;5.188;2023-07-02T12:25:56;12.73;;;6.10;;
64907;SDS011;69061;52.236;5.188;2023-07-02T12:28:24;14.02;;;6.20;;
64907;SDS011;69061;52.236;5.188;2023-07-02T12:30:51;12.88;;;5.32;;
64907;SDS011;69061;52.236;5.188;2023-07-02T12:33:18;15.77;;;6.60;;
64907;SDS011;69061;52.236;5.188;2023-07-02T12:35:45;18.85;;;8.05;;
64907;SDS011;69061;52.236;5.188;2023-07-02T12:38:11;11.65;;;5.53;;
64907;SDS011;69061;52.236;5.188;2023-07-02T12:40:39;15.05;;;6.43;;
64907;SDS011;69061;52.236;5.188;2023-07-02T12:43:05;13.38;;;6.07;;
64907;SDS011;69061;52.236;5.188;2023-07-02T12:45:33;14.20;;;6.35;;
64907;SDS011;69061;52.236;5.188;2023-07-02T12:48:00;13.65;;;6.03;;
64907;SDS011;69061;52.236;5.188;2023-07-02T12:50:27;13.05;;;6.45;;
64907;SDS011;69061;52.236;5.188;2023-07-02T12:52:53;15.60;;;6.47;;
64907;SDS011;69061;52.236;5.188;2023-07-02T12:55:20;11.20;;;6.45;;
64907;SDS011;69061;52.236;5.188;2023-07-02T12:57:47;9.70;;;5.60;;
64907;SDS011;69061;52.236;5.188;2023-07-02T13:00:14;17.83;;;7.10;;
64907;SDS011;69061;52.236;5.188;2023-07-02T13:02:43;16.17;;;6.65;;
64907;SDS011;69061;52.236;5.188;2023-07-02T13:05:11;11.10;;;6.40;;
64907;SDS011;69061;52.236;5.188;2023-07-02T13:07:38;12.13;;;6.47;;
64907;SDS011;69061;52.236;5.188;2023-07-02T13:10:06;10.48;;;6.47;;
64907;SDS011;69061;52.236;5.188;2023-07-02T13:12:33;11.73;;;6.30;;
64907;SDS011;69061;52.236;5.188;2023-07-02T13:15:00;23.50;;;7.40;;
64907;SDS011;69061;52.236;5.188;2023-07-02T13:17:27;11.57;;;6.45;;
64907;SDS011;69061;52.236;5.188;2023-07-02T13:19:55;14.23;;;6.63;;
64907;SDS011;69061;52.236;5.188;2023-07-02T13:22:22;12.68;;;6.97;;
64907;SDS011;69061;52.236;5.188;2023-07-02T13:24:49;15.95;;;7.25;;
64907;SDS011;69061;52.236;5.188;2023-07-02T13:27:16;14.45;;;6.65;;
64907;SDS011;69061;52.236;5.188;2023-07-02T13:29:44;16.35;;;7.43;;
64907;SDS011;69061;52.236;5.188;2023-07-02T13:32:10;14.73;;;7.53;;
64907;SDS011;69061;52.236;5.188;2023-07-02T13:34:37;17.13;;;7.53;;
64907;SDS011;69061;52.236;5.188;2023-07-02T13:37:05;14.82;;;8.27;;
64907;SDS011;69061;52.236;5.188;2023-07-02T13:39:33;19.15;;;7.28;;
64907;SDS011;69061;52.236;5.188;2023-07-02T13:41:59;20.48;;;7.80;;
64907;SDS011;69061;52.236;5.188;2023-07-02T13:44:26;12.05;;;6.28;;
64907;SDS011;69061;52.236;5.188;2023-07-02T13:46:53;14.43;;;7.80;;
64907;SDS011;69061;52.236;5.188;2023-07-02T13:49:20;13.50;;;7.28;;
64907;SDS011;69061;52.236;5.188;2023-07-02T13:51:47;16.83;;;7.65;;
64907;SDS011;69061;52.236;5.188;2023-07-02T13:54:17;16.30;;;8.57;;
64907;SDS011;69061;52.236;5.188;2023-07-02T13:56:45;16.80;;;7.30;;
64907;SDS011;69061;52.236;5.188;2023-07-02T13:59:14;18.48;;;8.65;;
64907;SDS011;69061;52.236;5.188;2023-07-02T14:01:41;13.98;;;7.40;;
64907;SDS011;69061;52.236;5.188;2023-07-02T14:04:09;15.50;;;8.65;;
64907;SDS011;69061;52.236;5.188;2023-07-02T14:06:36;17.25;;;7.20;;
64907;SDS011;69061;52.236;5.188;2023-07-02T14:09:04;15.65;;;7.38;;
64907;SDS011;69061;52.236;5.188;2023-07-02T14:11:32;14.55;;;7.30;;
64907;SDS011;69061;52.236;5.188;2023-07-02T14:14:00;14.15;;;6.85;;
64907;SDS011;69061;52.236;5.188;2023-07-02T14:16:28;16.85;;;7.95;;
64907;SDS011;69061;52.236;5.188;2023-07-02T14:18:55;18.23;;;7.05;;
64907;SDS011;69061;52.236;5.188;2023-07-02T14:21:22;12.15;;;6.50;;
64907;SDS011;69061;52.236;5.188;2023-07-02T14:23:49;14.55;;;7.03;;
64907;SDS011;69061;52.236;5.188;2023-07-02T14:26:16;13.95;;;6.90;;
64907;SDS011;69061;52.236;5.188;2023-07-02T14:28:43;17.35;;;7.30;;
64907;SDS011;69061;52.236;5.188;2023-07-02T14:31:10;12.63;;;6.53;;
64907;SDS011;69061;52.236;5.188;2023-07-02T14:33:38;16.05;;;6.70;;